Station: MARREE AP

  Atmospheric Gas Attenuation - ITU Rec 676-11   --------------- db/100km ---------------
Date Time Temp RH % AH g/m3 Dew Point Wind Direction Speed kph Gust kph Barometer mB Rainfall Since 9am 24GHz 47GHz 76GHz 122GHz 134GHz 241GHz
25 01:30 22.4 23 4.57 0.3 9 11 1010.5 0 10.8 18.0 22.4 58.0 44.1 148.9
25 01:20 22.5 23 4.59 0.4 9 9 1010.5 0 10.8 18.0 22.4 58.1 44.3 149.5
25 01:10 22 23 4.46 -0.1 9 9 1010.6 0 10.6 18.0 22.1 57.3 43.2 145.8
25 01:00 22.7 23 4.65 0.5 9 9 1010.7 0 10.9 18.1 22.5 58.4 44.8 151.3
25 00:50 22.9 23 4.7 0.7 9 11 1010.7 0 11.0 18.1 22.6 58.7 45.2 152.7
25 00:40 22.8 23 4.67 0.6 9 11 1010.9 0 11.0 18.1 22.6 58.5 44.9 151.8
25 00:30 22.8 23 4.67 0.6 9 9 1011 0 11.0 18.1 22.6 58.5 44.9 151.8
25 00:20 23.1 23 4.75 0.9 7 7 1011.1 0 11.1 18.2 22.7 59.0 45.6 154.1
25 00:10 23.5 22 4.65 0.6 6 7 1011.1 0 10.9 18.0 22.3 57.9 44.3 149.9
25 00:00 23.9 22 4.76 0.9 6 7 1011.2 0 11.1 18.0 22.6 58.5 45.2 153.1
24 23:50 24.3 21 4.65 0.6 6 7 1011.3 0 10.9 17.8 22.1 57.4 43.9 148.5
24 23:40 24.9 21 4.81 1.1 9 9 1011.3 0 11.2 17.9 22.4 58.2 45.2 153.0
24 23:30 25.4 20 4.71 0.8 13 13 1011.3 0 11.0 17.7 22.0 57.1 43.9 148.7
24 23:20 26 20 4.87 1.3 15 17 1011.3 0 11.3 17.8 22.3 57.9 45.2 153.1
24 23:10 26 20 4.87 1.3 15 15 1011.3 0 11.3 17.8 22.3 57.9 45.2 153.1
24 23:00 26.3 19 4.7 0.9 15 17 1011.3 0 10.9 17.5 21.8 56.4 43.4 146.8
24 22:50 26.8 19 4.84 1.3 15 17 1011.3 0 11.2 17.6 22.0 57.2 44.5 150.7
24 22:40 27.3 19 4.97 1.7 15 17 1011.2 0 11.5 17.6 22.3 57.8 45.4 154.2
24 22:30 27.5 19 5.03 1.8 17 20 1011.2 0 11.6 17.7 22.4 58.2 45.9 155.8
24 22:20 27.6 19 5.05 1.9 17 17 1011.1 0 11.6 17.7 22.4 58.2 46.0 156.3
24 22:10 27.9 18 4.87 1.4 17 19 1011.1 0 11.2 17.4 21.8 56.7 44.2 149.7
24 22:00 28.1 18 4.92 1.6 17 22 1011.1 0 11.3 17.4 21.9 56.9 44.5 151.0
24 21:50 28.7 17 4.8 1.3 19 20 1011 0 11.1 17.2 21.4 55.6 43.1 146.0
24 21:40 29.1 17 4.91 1.6 20 24 1010.9 0 11.3 17.2 21.6 56.2 43.9 148.9
24 21:30 29.2 17 4.94 1.7 19 24 1010.8 0 11.3 17.3 21.7 56.3 44.1 149.7
24 21:20 28.8 17 4.83 1.3 15 17 1010.6 0 11.1 17.2 21.5 55.7 43.3 146.8
24 21:10 28.5 16 4.47 0.3 15 17 1010.6 0 10.4 16.8 20.5 53.2 40.1 135.4
24 21:00 28.9 16 4.57 0.6 13 15 1010.5 0 10.6 16.9 20.7 53.7 40.8 138.0
24 20:50 29.4 16 4.7 1 11 13 1010.3 0 10.8 16.9 21.0 54.3 41.8 141.4
24 20:40 29.6 15 4.45 0.2 13 13 1010.3 0 10.3 16.6 20.2 52.3 39.4 133.0
24 20:30 30 15 4.55 0.6 13 13 1010.3 0 10.5 16.7 20.4 52.8 40.1 135.6
24 20:20 30.6 14 4.39 0.1 13 13 1010.1 0 10.2 16.4 19.8 51.3 38.4 129.5
24 20:10 31.2 14 4.53 0.6 11 13 1010.1 0 10.5 16.4 20.1 52.0 39.4 133.1
24 20:00 31.6 13 4.3 -0.1 15 17 1010 0 10.0 16.1 19.3 50.0 37.1 125.2
24 19:50 32.2 13 4.44 0.3 15 17 1009.9 0 10.2 16.2 19.6 50.7 38.1 128.7
24 19:40 32.6 13 4.53 0.6 15 17 1009.8 0 10.4 16.2 19.7 51.1 38.7 130.9
24 19:30 32.7 12 4.21 -0.4 15 19 1009.7 0 9.8 15.8 18.9 48.8 35.8 120.8
24 19:20 32.8 12 4.23 -0.3 13 15 1009.6 0 9.8 15.8 18.9 48.8 36.0 121.3
24 19:10 33 12 4.27 -0.2 19 19 1009.6 0 9.9 15.8 18.9 49.0 36.2 122.3
24 19:00 32.9 12 4.25 -0.2 13 17 1009.5 0 9.8 15.8 18.9 48.9 36.1 121.8
24 18:50 33.3 12 4.34 0.1 17 19 1009.4 0 10.0 15.9 19.1 49.3 36.7 124.0
24 18:40 33.4 12 4.36 0.1 17 20 1009.3 0 10.0 15.9 19.1 49.4 36.8 124.4
24 18:30 33.6 12 4.41 0.3 17 32 1009.2 0 10.1 15.9 19.2 49.6 37.2 125.7
24 18:20 33.4 12 4.36 0.1 19 22 1009.3 0 10.0 15.9 19.1 49.4 36.8 124.4
24 18:10 33.2 12 4.32 0 11 13 1009.4 0 10.0 15.8 19.0 49.2 36.6 123.5
24 18:00 33.9 11 4.11 -0.7 22 33 1009.3 0 9.5 15.5 18.3 47.4 34.5 116.1
24 17:50 34 11 4.13 -0.6 22 24 1009.3 0 9.6 15.5 18.4 47.5 34.6 116.6
24 17:40 33 12 4.27 -0.2 7 11 1009.3 0 9.9 15.8 18.9 49.0 36.2 122.2
24 17:30 33.4 12 4.36 0.1 11 19 1009.4 0 10.0 15.9 19.1 49.4 36.8 124.4
24 17:20 32.9 12 4.25 -0.2 17 20 1009.6 0 9.8 15.8 18.9 48.9 36.1 121.8
24 17:10 33.2 12 4.32 0 19 20 1009.6 0 10.0 15.9 19.0 49.2 36.6 123.5
24 17:00 32.7 11 3.86 -1.6 9 15 1009.6 0 9.0 15.4 17.9 46.3 32.8 110.1
24 16:50 33 11 3.92 -1.4 9 15 1009.8 0 9.2 15.5 18.0 46.6 33.2 111.6
24 16:40 33.6 11 4.04 -0.9 20 24 1009.8 0 9.4 15.5 18.2 47.1 34.0 114.4
24 16:30 32.8 11 3.88 -1.5 19 26 1009.9 0 9.1 15.5 18.0 46.4 33.0 110.6
24 16:20 34 11 4.13 -0.6 22 26 1010 0 9.6 15.5 18.4 47.5 34.6 116.7
24 16:10 32.8 12 4.23 -0.3 19 24 1010.1 0 9.8 15.8 18.9 48.9 36.0 121.4
24 16:00 32.6 12 4.18 -0.5 15 26 1010.2 0 9.7 15.8 18.8 48.6 35.6 120.1
24 15:50 32.6 12 4.18 -0.5 19 22 1010.2 0 9.7 15.8 18.8 48.6 35.6 120.1
24 15:40 32.3 12 4.12 -0.7 11 17 1010.4 0 9.6 15.8 18.7 48.4 35.2 118.7
24 15:30 32 12 4.05 -0.9 19 30 1010.6 0 9.5 15.8 18.6 48.1 34.8 116.9
24 15:20 32.9 12 4.25 -0.2 15 20 1010.8 0 9.8 15.9 18.9 49.0 36.2 121.9
24 15:10 32.2 12 4.1 -0.8 19 24 1010.9 0 9.5 15.8 18.7 48.3 35.1 118.3
24 15:00 31.7 11 3.66 -2.3 13 24 1011 0 8.7 15.4 17.7 45.5 31.5 105.4
24 14:50 31.8 11 3.68 -2.3 9 11 1011.2 0 8.7 15.4 17.7 45.6 31.6 105.9
24 14:40 32 11 3.71 -2.1 17 20 1011.4 0 8.8 15.4 17.7 45.7 31.8 106.6
24 14:30 31.3 11 3.58 -2.6 15 26 1011.6 0 8.5 15.4 17.5 45.2 31.0 103.5
24 14:20 32 11 3.71 -2.1 20 22 1011.7 0 8.8 15.4 17.7 45.7 31.8 106.6
24 14:10 31 12 3.84 -1.7 15 17 1012 0 9.0 15.7 18.3 47.2 33.4 111.9
24 14:00 32.2 12 4.1 -0.8 17 30 1012 0 9.5 15.8 18.7 48.4 35.2 118.4
24 13:50 30.9 14 4.46 0.3 9 11 1012.2 0 10.3 16.5 20.0 51.8 38.9 131.6
24 13:40 31.4 13 4.25 -0.3 13 17 1012.4 0 9.9 16.1 19.3 49.9 36.8 124.2
24 13:30 31.1 15 4.83 1.4 19 32 1012.5 0 11.1 16.8 21.0 54.4 42.2 143.1
24 13:20 30.1 16 4.88 1.5 7 9 1012.7 0 11.2 17.1 21.4 55.4 43.2 146.5
24 13:10 30.3 15 4.62 0.8 15 19 1013 0 10.7 16.8 20.6 53.3 40.7 137.7
24 13:00 29.7 16 4.77 1.2 15 28 1013.2 0 11.0 17.0 21.2 54.9 42.4 143.6
24 12:50 29.1 18 5.2 2.4 7 13 1013.3 0 11.9 17.6 22.5 58.5 46.8 158.9
24 12:40 29.3 17 4.96 1.7 9 15 1013.5 0 11.4 17.3 21.8 56.6 44.4 150.6
24 12:30 29 19 5.46 3.1 9 22 1013.7 0 12.4 18.0 23.3 60.6 49.3 167.9
24 12:20 29.1 18 5.2 2.4 20 24 1013.9 0 11.9 17.7 22.6 58.6 46.8 159.0
24 12:10 29 18 5.17 2.3 20 24 1014 0 11.8 17.7 22.5 58.4 46.6 158.2
24 12:00 28.5 19 5.31 2.7 15 28 1014.2 0 12.1 17.9 23.0 59.9 48.2 163.9
24 11:50 28.8 19 5.4 2.9 24 28 1014.2 0 12.3 18.0 23.2 60.4 48.9 166.4
24 11:40 28.2 20 5.5 3.1 17 20 1014.3 0 12.5 18.2 23.7 61.6 50.2 171.0
24 11:30 27.7 20 5.35 2.7 19 24 1014.4 0 12.2 18.1 23.4 60.8 49.0 166.8
24 11:20 27.6 20 5.32 2.6 22 24 1014.6 0 12.2 18.1 23.3 60.6 48.8 166.0
24 11:10 27.8 21 5.65 3.5 19 22 1014.8 0 12.8 18.5 24.3 63.1 51.9 177.0
24 11:00 26.7 20 5.06 1.9 22 30 1014.8 0 11.7 18.0 22.8 59.2 46.8 158.8
24 10:50 27.7 21 5.62 3.4 24 28 1014.8 0 12.8 18.5 24.2 62.9 51.7 176.2
24 10:40 26.7 22 5.57 3.2 24 28 1015 0 12.7 18.6 24.3 63.3 51.8 176.6
24 10:30 26.1 24 5.88 4 22 33 1015 0 13.4 19.1 25.5 66.3 55.3 188.8
24 10:20 25.3 26 6.09 4.4 19 24 1015.2 0 13.8 19.5 26.4 68.7 58.0 198.3
24 10:10 25.5 27 6.39 5.1 20 30 1015.2 0 14.5 19.9 27.2 71.0 61.0 208.7
24 10:00 25.3 26 6.09 4.4 24 33 1015 0 13.8 19.5 26.4 68.7 58.0 198.2
24 09:50 24.8 26 5.92 4 20 24 1015 0 13.5 19.4 26.0 67.6 56.6 193.2
24 09:40 24.9 25 5.72 3.5 24 32 1014.9 0 13.1 19.1 25.3 65.9 54.5 185.8
24 09:30 24.8 27 6.15 4.5 28 35 1014.8 0 14.0 19.7 26.7 69.6 59.0 201.6
24 09:20 24.3 27 5.97 4.1 28 32 1014.8 0 13.6 19.6 26.3 68.4 57.5 196.2
24 09:10 24.2 28 6.16 4.6 28 33 1014.8 0 14.0 19.8 26.9 70.1 59.5 203.4
24 09:00 23.7 27 5.77 3.6 28 35 1014.6 0 13.2 19.4 25.8 67.2 55.8 190.2

Last Refresh: 25-Nov-2020 01:41:57

Most of the information presented on this site is sourced from the Bureau of Meteorology.  Copyright in all material sourced from the Bureau of Meteorology resides with the Commonwealth of Australia.